METAR Data
IDs: Format: Raw Decoded Include TAF

Data at: 1518 UTC 12 Dec 2018

PAFS 121501Z AUTO 06004KT 6SM -SN BR BKN026 OVC040 M15/M16 A2910 RMK AO2 P0000 FZRANO
PAFS 121401Z AUTO 06003KT 9SM -SN FEW037 BKN060 BKN070 M16/M17 A2909 RMK AO2 SLP870 P0000 T11561167 FZRANO
PAFS 121301Z AUTO 08003KT 7SM -SN SCT022 M16/M17 A2907 RMK AO2 P0000 FZRANO
PAFS 121243Z AUTO 07004KT 8SM -SN BKN022 BKN090 M16/M17 A2906 RMK AO2 SLP863 P0000 60000 70008 T11561172 11133 21156 53012 FZRANO
PAFS 121201Z AUTO 00000KT 3SM -SN BR OVC024 M14/M16 A2906 RMK AO2 P0000 FZRANO
PAFS 121141Z AUTO 06005KT 2 1/2SM -SN BR BKN024 OVC050 M14/M16 A2906 RMK AO2 P0000 FZRANO
PAFS 121101Z AUTO 05004KT 4SM -SN BR OVC024 M14/M16 A2905 RMK AO2 SLP856 P0000 T11391156 FZRANO
PAFS 121001Z AUTO 06003KT 7SM -SN OVC018 M14/M16 A2904 RMK AO2 SLP853 P0000 T11391156 FZRANO
PAFS 120920Z AUTO 04003KT 3SM -SN BR OVC018 M13/M15 A2903 RMK AO2 P0000 FZRANO
PAFS 120914Z AUTO 04004KT 1 3/4SM -SN BR BKN018 OVC023 M13/M15 A2903 RMK AO2 P0000 FZRANO
PAFS 120901Z AUTO 03003KT 2SM -SN BR SCT016 OVC023 M13/M15 A2902 RMK AO2 VIS 1 1/2V3 SLP848 P0000 60001 T11331150 411331133 53003 FZRANO
PAFS 120838Z AUTO 06003KT 2SM -SN BR BKN016 OVC025 M13/M15 A2902 RMK AO2 P0000 FZRANO
PAFS 120823Z AUTO 05003KT 1 3/4SM -SN BR BKN014 OVC025 M13/M15 A2902 RMK AO2 VIS 1V3 P0000 FZRANO
PAFS 120801Z AUTO 07003KT 1 3/4SM -SN BR OVC017 M13/M15 A2901 RMK AO2 VIS 1V2 1/2 SLP845 P0000 T11331150 FZRANO
PAFS 120759Z AUTO 07004KT 1 3/4SM -SN BR OVC017 M13/M15 A2901 RMK AO2 P0000 FZRANO
PAFS 120701Z AUTO 07004KT 3SM -SN BR BKN023 OVC029 M14/M16 A2901 RMK AO2 SLP843 P0000 T11441156 FZRANO
PAFS 120653Z AUTO 07004KT 3SM -SN BR BKN025 OVC029 M14/M16 A2900 RMK AO2 P0000 FZRANO
PAFS 120601Z AUTO 08003KT 5SM -SN BR FEW019 BKN033 OVC090 M16/M17 A2900 RMK AO2 SLP841 P0000 60006 T11561167 11144 21156 53003 FZRANO
PAFS 120527Z AUTO 07004KT 8SM -SN FEW029 OVC036 M16/M17 A2900 RMK AO2 P0000 FZRANO
PAFS 120501Z AUTO 00000KT 5SM -SN BR OVC029 M15/M17 A2899 RMK AO2 SLP840 P0000 T11501167 FZRANO
PAFS 120415Z AUTO 00000KT 3SM -SN BR BKN027 OVC038 M14/M16 A2899 RMK AO2 P0000 FZRANO
PAFS 120401Z AUTO 00000KT 3SM -SN BR OVC040 M14/M16 A2899 RMK AO2 SLP839 P0001 T11441161 FZRANO
PAFS 120326Z AUTO 00000KT 4SM -SN BR BKN045 OVC050 M14/M16 A2898 RMK AO2 P0001 FZRANO
PAFS 120301Z AUTO 00000KT 2 1/2SM -SN BR SCT034 OVC041 M14/M16 A2899 RMK AO2 P0000 FZRANO
PAFS 120227Z AUTO 00000KT 3SM -SN BR FEW024 OVC042 M14/M16 A2898 RMK AO2 P0000 FZRANO
PAFS 120219Z AUTO 00000KT 1 3/4SM -SN BR SCT024 OVC040 M14/M16 A2898 RMK AO2 P0000 FZRANO
PAFS 120201Z AUTO 00000KT 2SM -SN BR OVC027 M14/M16 A2897 RMK AO2 SLP831 P0002 T11441156 FZRANO
PAFS 120154Z AUTO 00000KT 2SM -SN BR OVC027 M14/M16 A2897 RMK AO2 P0002 FZRANO
PAFS 120137Z AUTO 00000KT 1 1/2SM -SN BR BKN020 OVC029 M14/M16 A2896 RMK AO2 P0001 FZRANO
PAFS 120101Z AUTO 00000KT 1SM -SN BR OVC018 M14/M16 A2895 RMK AO2 SLP824 P0001 T11441156 FZRANO
PAFS 120048Z AUTO 00000KT 1SM -SN BR OVC016 M14/M16 A2895 RMK AO2 P0001 FZRANO
PAFS 120040Z AUTO 00000KT 3/4SM -SN BR OVC014 M14/M16 A2895 RMK AO2 P0001 FZRANO
PAFS 120018Z AUTO 00000KT 1SM -SN BR OVC014 M14/M16 A2894 RMK AO2 P0000 FZRANO
PAFS 120001Z AUTO 00000KT 3/4SM -SN BR OVC014 M14/M16 A2894 RMK AO2 SLP818 P0002 60004 T11441156 11144 21178 51024 FZRANO
PAFS 112331Z AUTO 20003KT 3/4SM -SN BR OVC014 M14/M16 A2893 RMK AO2 P0001 FZRANO
PAFS 112301Z AUTO 00000KT 1/2SM SN FZFG OVC011 M14/M16 A2892 RMK AO2 SLP812 P0002 T11441161 FZRANO
PAFS 112215Z AUTO 00000KT 1/2SM -SN FZFG BKN013 BKN018 OVC046 M15/M17 A2890 RMK AO2 P0000 FZRANO
PAFS 112211Z AUTO 00000KT 3/4SM -SN BR SCT013 BKN018 OVC046 M15/M17 A2890 RMK AO2 P0000 FZRANO
PAFS 112205Z AUTO 00000KT 1 1/4SM -SN BR SCT017 BKN026 OVC046 M15/M17 A2890 RMK AO2 VIS 3/4V4 P0000 FZRANO
PAFS 112201Z AUTO 00000KT 2SM -SN BR FEW021 BKN038 OVC046 M15/M17 A2890 RMK AO2 VIS 1V5 SLP806 P0000 T11501167 FZRANO
PAFS 112135Z AUTO 00000KT 2 1/2SM -SN BR OVC036 M15/M17 A2889 RMK AO2 VIS 1V5 P0000 FZRANO
PAFS 112101Z AUTO 00000KT 6SM -SN BR OVC032 M15/M17 A2888 RMK AO2 SLP798 P0000 60000 T11501167 51026 FZRANO
PAFS 112001Z AUTO 20004KT 9SM -SN OVC032 M16/M17 A2885 RMK AO2 SLP789 P0000 T11561172 FZRANO
PAFS 111901Z AUTO 24004KT 9SM -SN OVC034 M16/M17 A2883 RMK AO2 SLP782 P0000 T11561172 FZRANO
PAFS 111801Z AUTO 00000KT 10SM -SN OVC034 M18/M19 A2880 RMK AO2 SNB1759 SLP772 P0000 60000 T11781194 11172 21217 53019 FZRANO
PAFS 111701Z AUTO 26003KT 9SM BKN034 M21/M23 A2877 RMK AO2 SLP763 T12111233 FZRANO
PAFS 111601Z AUTO 00000KT 10SM CLR M21/M23 A2875 RMK AO2 SLP755 T12111228 FZRANO
PAFS 111501Z AUTO 24003KT 9SM CLR M21/M23 A2873 RMK AO2 SLP750 T12061228 53004 FZRANO
PAFS 111401Z AUTO 00000KT 9SM CLR M20/M22 A2871 RMK AO2 SLP743 T12001222 FZRANO
PAFS 111301Z AUTO 24003KT 9SM CLR M19/M21 A2871 RMK AO2 SLP740 T11941211 FZRANO
PAFS 111201Z AUTO 00000KT 10SM CLR M18/M19 A2870 RMK AO2 SLP740 T11781194 11133 21178 57001 FZRANO
PAFS 111101Z AUTO 00000KT 10SM CLR M17/M18 A2870 RMK AO2 SLP739 T11671183 FZRANO
PAFS 111001Z AUTO 07007KT 10SM CLR M15/M17 A2870 RMK AO2 SLP739 T11501167 FZRANO
PAFS 110901Z AUTO 08006KT 10SM CLR M15/M17 A2870 RMK AO2 SLP739 T11501167 411501150 56014 FZRANO
PAFS 110801Z AUTO 07008KT 10SM CLR M14/M16 A2870 RMK AO2 SLP740 T11441161 FZRANO
PAFS 110701Z AUTO 06009KT 10SM CLR M14/M16 A2871 RMK AO2 SLP741 T11391156 FZRANO
PAFS 110601Z AUTO 07012KT 10SM CLR M13/M16 A2872 RMK AO2 SLP745 T11331156 11128 21139 58019 FZRANO
PAFS 110501Z AUTO 07010KT 10SM CLR M13/M15 A2874 RMK AO2 SLP754 T11331150 FZRANO
PAFS 110401Z AUTO 08008KT 10SM CLR M13/M15 A2877 RMK AO2 SLP763 T11331150 FZRANO